Time;durP1;ratioP1;P1;durP2;ratioP2;P2;SDS_P1;SDS_P2;PMS_P1;PMS_P2;Temp;Humidity;BMP_temperature;BMP_pressure;BME280_temperature;BME280_humidity;BME280_pressure;Samples;Min_cycle;Max_cycle;Signal;HPM_P1;HPM_P2
2021/04/10 00:02:10;;;;;;;4.55;1.75;;;;;12.70;101155.00;;;;5092109;28;21056;-74
2021/04/10 00:04:37;;;;;;;4.90;1.20;;;;;12.70;101157.00;;;;5082635;28;20330;-74
2021/04/10 00:07:05;;;;;;;3.50;1.70;;;;;12.60;101158.00;;;;5079360;28;20202;-74
2021/04/10 00:09:32;;;;;;;1.95;1.00;;;;;12.60;101154.00;;;;5088536;28;20272;-74
2021/04/10 00:11:59;;;;;;;6.90;1.98;;;;;12.60;101154.00;;;;5090829;28;20194;-73
2021/04/10 00:14:26;;;;;;;4.13;2.00;;;;;12.60;101154.00;;;;5089843;28;20232;-74
2021/04/10 00:16:53;;;;;;;5.07;1.30;;;;;12.60;101154.00;;;;5091380;28;20225;-74
2021/04/10 00:19:20;;;;;;;3.28;1.48;;;;;12.60;101160.00;;;;5078376;28;20191;-74
2021/04/10 00:21:47;;;;;;;4.13;1.30;;;;;12.60;101160.00;;;;5090744;28;20285;-74
2021/04/10 00:24:16;;;;;;;3.20;1.55;;;;;12.60;101156.00;;;;5090250;28;20194;-74
2021/04/10 00:26:43;;;;;;;4.63;1.15;;;;;12.60;101159.00;;;;5090170;28;20202;-74
2021/04/10 00:29:09;;;;;;;2.97;1.50;;;;;12.60;101156.00;;;;5090096;28;20203;-74
2021/04/10 00:31:36;;;;;;;3.75;1.40;;;;;12.60;101155.00;;;;5084591;28;20257;-74
2021/04/10 00:34:03;;;;;;;3.78;1.30;;;;;12.60;101147.00;;;;5084658;28;20229;-74
2021/04/10 00:36:30;;;;;;;2.42;1.23;;;;;12.60;101152.00;;;;5086923;28;20251;-74
2021/04/10 00:38:56;;;;;;;2.70;1.30;;;;;12.60;101141.00;;;;5085418;28;20209;-73
2021/04/10 00:41:24;;;;;;;3.53;1.50;;;;;12.60;101151.00;;;;5084779;28;20217;-74
2021/04/10 00:43:51;;;;;;;3.00;1.13;;;;;12.50;101139.00;;;;5084524;28;20198;-74
2021/04/10 00:46:17;;;;;;;3.53;1.50;;;;;12.50;101141.00;;;;5084183;28;20190;-74
2021/04/10 00:48:44;;;;;;;2.85;1.30;;;;;12.50;101142.00;;;;5085740;28;20222;-74
2021/04/10 00:51:11;;;;;;;1.90;1.25;;;;;12.50;101139.00;;;;5083957;28;20210;-74
2021/04/10 00:53:40;;;;;;;2.65;1.00;;;;;12.50;101146.00;;;;5082040;28;20225;-74
2021/04/10 00:56:08;;;;;;;2.55;1.60;;;;;12.50;101137.00;;;;5083006;28;20203;-74
2021/04/10 00:58:35;;;;;;;3.75;1.30;;;;;12.40;101131.00;;;;5088091;28;20656;-74
2021/04/10 01:01:04;;;;;;;5.78;1.77;;;;;12.40;101130.00;;;;5086319;28;20194;-73
2021/04/10 01:03:31;;;;;;;4.10;1.40;;;;;12.40;101133.00;;;;5087566;28;20255;-74
2021/04/10 01:05:58;;;;;;;3.70;1.48;;;;;12.40;101130.00;;;;5088566;28;20202;-74
2021/04/10 01:08:27;;;;;;;2.92;1.40;;;;;12.40;101137.00;;;;5087925;28;20194;-74
2021/04/10 01:10:58;;;;;;;2.72;1.20;;;;;12.30;101132.00;;;;5089033;28;20205;-74
2021/04/10 01:13:33;;;;;;;3.70;1.65;;;;;12.30;101129.00;;;;5087538;28;20859;-74
2021/04/10 01:16:06;;;;;;;4.47;1.15;;;;;12.30;101129.00;;;;5089068;28;20235;-74
2021/04/10 01:18:44;;;;;;;2.42;1.40;;;;;12.20;101118.00;;;;5086789;28;20221;-74
2021/04/10 01:21:24;;;;;;;2.75;1.30;;;;;12.20;101121.00;;;;5087703;28;20349;-74
2021/04/10 01:24:29;;;;;;;1.95;1.17;;;;;12.10;101133.00;;;;5084264;28;20285;-74
2021/04/10 01:27:19;;;;;;;2.90;1.30;;;;;12.10;101133.00;;;;5081919;28;20561;-74
2021/04/10 01:29:51;;;;;;;5.00;1.17;;;;;12.10;101129.00;;;;5057217;28;20202;-74
2021/04/10 01:32:20;;;;;;;5.63;1.85;;;;;12.10;101125.00;;;;5068370;28;20252;-74
2021/04/10 01:34:49;;;;;;;2.58;1.42;;;;;12.10;101125.00;;;;5069003;28;20241;-74
2021/04/10 01:37:20;;;;;;;6.60;1.60;;;;;12.10;101125.00;;;;5078694;28;20311;-74
2021/04/10 01:39:49;;;;;;;8.15;1.77;;;;;12.10;101129.00;;;;5087933;28;20194;-74
2021/04/10 01:42:20;;;;;;;1.92;1.23;;;;;12.10;101128.00;;;;5083375;28;20195;-74
2021/04/10 01:44:49;;;;;;;4.07;1.63;;;;;12.10;101128.00;;;;5080246;28;20194;-74
2021/04/10 01:47:17;;;;;;;4.28;1.73;;;;;12.00;101128.00;;;;5087060;28;20198;-74
2021/04/10 01:49:46;;;;;;;4.90;1.30;;;;;12.00;101137.00;;;;5070311;28;540103;-74
2021/04/10 01:52:14;;;;;;;4.70;1.55;;;;;12.00;101129.00;;;;5085041;28;20689;-74
2021/04/10 01:54:41;;;;;;;4.57;1.88;;;;;12.00;101140.00;;;;5075842;28;20234;-74
2021/04/10 01:57:08;;;;;;;3.10;1.88;;;;;12.00;101137.00;;;;5089922;28;20221;-74
2021/04/10 01:59:36;;;;;;;2.65;1.00;;;;;12.00;101137.00;;;;5081458;28;20249;-74
2021/04/10 02:02:04;;;;;;;3.17;1.35;;;;;12.00;101144.00;;;;5077666;28;20194;-74
2021/04/10 02:04:34;;;;;;;2.20;1.23;;;;;12.00;101145.00;;;;5085411;28;20194;-74
2021/04/10 02:07:01;;;;;;;4.38;1.95;;;;;12.00;101141.00;;;;5088746;28;20199;-74
2021/04/10 02:09:31;;;;;;;2.70;1.35;;;;;12.00;101145.00;;;;5089350;28;20210;-73
2021/04/10 02:12:00;;;;;;;3.33;1.60;;;;;12.00;101148.00;;;;5076165;28;20195;-74
2021/04/10 02:14:30;;;;;;;2.30;1.42;;;;;12.00;101153.00;;;;5087224;28;20583;-74
2021/04/10 02:16:57;;;;;;;2.88;1.40;;;;;12.00;101145.00;;;;5087990;28;21629;-74
2021/04/10 02:19:24;;;;;;;2.83;1.45;;;;;12.00;101154.00;;;;5069642;28;20198;-74
2021/04/10 02:21:52;;;;;;;6.32;1.98;;;;;12.00;101155.00;;;;5087015;28;20564;-74
2021/04/10 02:24:18;;;;;;;6.05;1.83;;;;;12.00;101154.00;;;;5084980;28;20617;-74
2021/04/10 02:26:45;;;;;;;3.60;1.38;;;;;12.00;101152.00;;;;5085067;28;20187;-74
2021/04/10 02:29:12;;;;;;;5.10;1.30;;;;;12.00;101155.00;;;;5069928;28;20203;-74
2021/04/10 02:31:45;;;;;;;4.93;1.95;;;;;12.00;101151.00;;;;5068543;28;20207;-74
2021/04/10 02:34:15;;;;;;;2.75;1.52;;;;;12.00;101157.00;;;;5088529;28;20692;-74
2021/04/10 02:36:45;;;;;;;4.72;1.58;;;;;12.00;101158.00;;;;5088858;28;20186;-74
2021/04/10 02:39:12;;;;;;;6.07;1.52;;;;;12.00;101159.00;;;;5088061;28;20191;-74
2021/04/10 02:41:44;;;;;;;4.05;1.80;;;;;12.00;101161.00;;;;5075421;28;20195;-74
2021/04/10 02:44:11;;;;;;;2.53;1.20;;;;;12.00;101152.00;;;;5088298;28;20579;-74
2021/04/10 02:46:45;;;;;;;6.20;2.05;;;;;12.00;101149.00;;;;5087323;28;20679;-74
2021/04/10 02:49:15;;;;;;;1.98;1.20;;;;;12.00;101155.00;;;;5082698;28;20654;-74
2021/04/10 02:51:47;;;;;;;3.92;2.00;;;;;12.00;101163.00;;;;5085509;28;20206;-74
2021/04/10 02:54:17;;;;;;;8.48;1.63;;;;;12.00;101161.00;;;;5083166;28;20218;-74
2021/04/10 02:56:52;;;;;;;2.33;1.52;;;;;11.90;101154.00;;;;5077273;28;20191;-74
2021/04/10 02:59:21;;;;;;;4.28;1.35;;;;;12.00;101158.00;;;;5078341;28;20258;-74
2021/04/10 03:01:49;;;;;;;5.78;1.60;;;;;12.00;101148.00;;;;5082959;28;20202;-74
2021/04/10 03:04:16;;;;;;;4.03;1.40;;;;;12.00;101165.00;;;;5078764;28;20198;-74
2021/04/10 03:06:44;;;;;;;3.15;1.70;;;;;12.00;101152.00;;;;5077408;28;20194;-75
2021/04/10 03:09:12;;;;;;;3.97;1.80;;;;;12.00;101150.00;;;;5068435;28;20195;-74
2021/04/10 03:11:40;;;;;;;2.03;1.38;;;;;11.90;101160.00;;;;5081442;28;20213;-74
2021/04/10 03:14:08;;;;;;;3.33;1.45;;;;;11.90;101163.00;;;;5086532;28;20221;-75
2021/04/10 03:16:35;;;;;;;2.78;1.40;;;;;11.90;101154.00;;;;5087464;28;20186;-74
2021/04/10 03:19:05;;;;;;;4.35;1.52;;;;;11.90;101159.00;;;;5081606;28;20199;-74
2021/04/10 03:21:32;;;;;;;2.58;1.20;;;;;11.90;101157.00;;;;5079254;28;20197;-74
2021/04/10 03:23:59;;;;;;;2.58;1.30;;;;;11.90;101155.00;;;;5087294;28;20255;-74
2021/04/10 03:26:26;;;;;;;2.08;1.20;;;;;11.90;101154.00;;;;5085691;28;20588;-74
2021/04/10 03:28:54;;;;;;;5.00;1.77;;;;;11.90;101153.00;;;;5086614;28;20186;-74
2021/04/10 03:31:21;;;;;;;4.25;1.38;;;;;11.90;101155.00;;;;5079393;28;20206;-74
2021/04/10 03:33:48;;;;;;;4.75;1.58;;;;;11.90;101157.00;;;;5075980;28;20221;-74
2021/04/10 03:36:16;;;;;;;2.83;1.17;;;;;11.90;101153.00;;;;5083819;28;21025;-75
2021/04/10 03:38:43;;;;;;;2.85;1.23;;;;;11.80;101155.00;;;;5067852;28;20194;-74
2021/04/10 03:41:11;;;;;;;4.20;1.45;;;;;11.80;101153.00;;;;5077110;28;20191;-74
2021/04/10 03:43:38;;;;;;;3.38;1.27;;;;;11.90;101163.00;;;;5080497;28;20210;-75
2021/04/10 03:46:04;;;;;;;2.80;1.08;;;;;11.90;101165.00;;;;5080576;28;20202;-74
2021/04/10 03:48:33;;;;;;;7.55;1.33;;;;;11.90;101168.00;;;;5086241;28;20229;-74
2021/04/10 03:51:00;;;;;;;10.70;1.85;;;;;11.90;101169.00;;;;5078628;28;20195;-74
2021/04/10 03:53:27;;;;;;;3.28;0.85;;;;;11.90;101168.00;;;;5081920;28;20206;-74
2021/04/10 03:55:54;;;;;;;1.60;1.27;;;;;11.90;101164.00;;;;5087611;28;20201;-75
2021/04/10 03:58:21;;;;;;;2.00;0.88;;;;;12.00;101170.00;;;;5073528;28;20247;-74
2021/04/10 04:00:48;;;;;;;1.35;0.90;;;;;12.00;101174.00;;;;5081771;28;20195;-74
2021/04/10 04:03:15;;;;;;;3.13;1.45;;;;;12.00;101178.00;;;;5083831;28;20263;-75
2021/04/10 04:05:42;;;;;;;2.40;0.90;;;;;12.00;101174.00;;;;5087179;28;20761;-75
2021/04/10 04:08:09;;;;;;;1.60;0.98;;;;;12.00;101173.00;;;;5086622;28;20232;-74
2021/04/10 04:10:35;;;;;;;1.38;0.93;;;;;12.00;101181.00;;;;5084610;28;20673;-74
2021/04/10 04:13:02;;;;;;;1.95;1.20;;;;;12.00;101188.00;;;;5086860;28;20199;-74
2021/04/10 04:15:30;;;;;;;1.73;1.08;;;;;12.00;101186.00;;;;5086180;28;20225;-74
2021/04/10 04:17:57;;;;;;;3.05;1.45;;;;;12.00;101186.00;;;;5085955;28;20194;-74
2021/04/10 04:20:23;;;;;;;2.90;1.20;;;;;12.00;101190.00;;;;5080509;28;20824;-74
2021/04/10 04:22:51;;;;;;;2.83;0.93;;;;;12.00;101192.00;;;;5080919;28;20214;-74
2021/04/10 04:25:17;;;;;;;4.35;1.20;;;;;12.00;101193.00;;;;5087857;28;20206;-74
2021/04/10 04:27:44;;;;;;;4.18;1.20;;;;;12.00;101186.00;;;;5085806;28;20265;-74
2021/04/10 04:30:13;;;;;;;2.42;0.90;;;;;12.00;101192.00;;;;5082242;28;20206;-74
2021/04/10 04:32:41;;;;;;;4.55;0.82;;;;;12.00;101193.00;;;;5076118;28;20294;-74
2021/04/10 04:35:08;;;;;;;5.00;1.02;;;;;12.00;101202.00;;;;5084227;28;20281;-75
2021/04/10 04:37:35;;;;;;;1.92;0.85;;;;;12.00;101192.00;;;;5082033;28;20198;-74
2021/04/10 04:40:02;;;;;;;1.25;0.80;;;;;12.00;101197.00;;;;5069511;28;20195;-74
2021/04/10 04:42:29;;;;;;;3.38;1.08;;;;;12.00;101190.00;;;;5090175;28;20201;-74
2021/04/10 04:44:56;;;;;;;3.47;1.10;;;;;12.00;101190.00;;;;5091163;28;20195;-75
2021/04/10 04:47:23;;;;;;;1.38;0.75;;;;;12.00;101200.00;;;;5088173;28;20271;-74
2021/04/10 04:49:50;;;;;;;3.22;1.13;;;;;12.00;101197.00;;;;5084360;28;20760;-74
2021/04/10 04:52:17;;;;;;;2.92;0.85;;;;;12.00;101198.00;;;;5083305;28;20222;-74
2021/04/10 04:54:44;;;;;;;2.38;0.85;;;;;12.00;101201.00;;;;5073676;28;20226;-74
2021/04/10 04:57:10;;;;;;;1.50;0.88;;;;;12.00;101204.00;;;;5081041;28;20198;-74
2021/04/10 04:59:37;;;;;;;1.55;0.80;;;;;12.00;101202.00;;;;5091209;28;20412;-74
2021/04/10 05:02:04;;;;;;;2.58;0.98;;;;;12.00;101207.00;;;;5074440;28;20210;-74
2021/04/10 05:04:30;;;;;;;1.75;0.85;;;;;12.00;101203.00;;;;5073493;28;20199;-74
2021/04/10 05:06:58;;;;;;;2.60;0.90;;;;;12.00;101205.00;;;;5088770;28;20248;-74
2021/04/10 05:09:25;;;;;;;2.25;0.93;;;;;12.00;101210.00;;;;5071300;28;20237;-75
2021/04/10 05:11:52;;;;;;;3.42;0.80;;;;;12.00;101211.00;;;;5089130;28;20221;-75
2021/04/10 05:14:19;;;;;;;5.30;1.02;;;;;12.00;101214.00;;;;5091357;28;20218;-74
2021/04/10 05:16:45;;;;;;;1.65;0.90;;;;;12.00;101211.00;;;;5087072;28;20194;-74
2021/04/10 05:19:12;;;;;;;2.00;0.80;;;;;12.00;101207.00;;;;5091203;28;20610;-74
2021/04/10 05:21:39;;;;;;;2.92;1.23;;;;;12.00;101203.00;;;;5087425;28;21612;-74
2021/04/10 05:24:08;;;;;;;2.17;0.95;;;;;11.90;101201.00;;;;5079820;28;20263;-74
2021/04/10 05:26:34;;;;;;;3.40;0.85;;;;;12.00;101207.00;;;;5081207;28;20579;-75
2021/04/10 05:29:01;;;;;;;3.50;1.00;;;;;12.00;101207.00;;;;5071773;28;20712;-75
2021/04/10 05:31:30;;;;;;;2.53;0.90;;;;;12.00;101211.00;;;;5078864;28;20191;-75
2021/04/10 05:33:57;;;;;;;1.33;1.02;;;;;12.00;101210.00;;;;5071486;28;20230;-75
2021/04/10 05:36:24;;;;;;;2.28;1.10;;;;;12.00;101212.00;;;;5077759;28;20252;-75
2021/04/10 05:38:51;;;;;;;2.97;1.42;;;;;12.00;101220.00;;;;5080179;28;20194;-75
2021/04/10 05:41:18;;;;;;;1.58;0.85;;;;;12.00;101210.00;;;;5080375;28;20220;-75
2021/04/10 05:43:45;;;;;;;5.85;1.20;;;;;12.00;101209.00;;;;5088303;28;20207;-75
2021/04/10 05:46:12;;;;;;;2.92;0.88;;;;;12.00;101221.00;;;;5088523;28;20197;-74
2021/04/10 05:48:38;;;;;;;1.90;1.15;;;;;12.00;101219.00;;;;5076012;28;20225;-75
2021/04/10 05:51:06;;;;;;;1.90;1.05;;;;;12.00;101226.00;;;;5081913;28;20202;-75
2021/04/10 05:53:33;;;;;;;3.42;1.23;;;;;12.00;101233.00;;;;5087623;28;20201;-74
2021/04/10 05:56:00;;;;;;;2.17;0.93;;;;;12.00;101239.00;;;;5079520;28;20195;-74
2021/04/10 05:58:27;;;;;;;3.80;1.15;;;;;12.00;101242.00;;;;5081302;28;20204;-75
2021/04/10 06:00:54;;;;;;;4.50;0.77;;;;;12.00;101247.00;;;;5079659;28;20221;-77
2021/04/10 06:03:21;;;;;;;2.67;1.10;;;;;12.00;101249.00;;;;5085163;28;20203;-77
2021/04/10 06:05:49;;;;;;;3.25;1.13;;;;;12.00;101244.00;;;;5082047;28;20256;-76
2021/04/10 06:08:15;;;;;;;2.50;0.90;;;;;12.10;101237.00;;;;5075979;28;20198;-75
2021/04/10 06:10:42;;;;;;;5.25;0.93;;;;;12.10;101246.00;;;;5082508;28;20201;-75
2021/04/10 06:13:09;;;;;;;3.22;1.13;;;;;12.10;101245.00;;;;5084782;28;20198;-75
2021/04/10 06:15:37;;;;;;;1.55;0.70;;;;;12.10;101243.00;;;;5080076;28;20225;-75
2021/04/10 06:18:05;;;;;;;2.65;1.20;;;;;12.20;101237.00;;;;5073696;28;20256;-75
2021/04/10 06:20:31;;;;;;;6.53;1.20;;;;;12.20;101237.00;;;;5085686;28;20194;-76
2021/04/10 06:22:58;;;;;;;2.80;0.85;;;;;12.30;101241.00;;;;5082888;28;20209;-75
2021/04/10 06:25:25;;;;;;;1.77;0.73;;;;;12.30;101243.00;;;;5069885;28;20229;-75
2021/04/10 06:27:52;;;;;;;2.67;0.70;;;;;12.30;101243.00;;;;5069910;28;20237;-76
2021/04/10 06:30:19;;;;;;;2.35;0.80;;;;;12.30;101235.00;;;;5079454;28;20199;-76
2021/04/10 06:32:48;;;;;;;3.17;1.25;;;;;12.40;101242.00;;;;5070887;28;20249;-75
2021/04/10 06:35:14;;;;;;;4.05;1.13;;;;;12.40;101257.00;;;;5074616;28;20222;-75
2021/04/10 06:37:42;;;;;;;4.47;1.10;;;;;12.40;101248.00;;;;5076741;28;20689;-75
2021/04/10 06:40:09;;;;;;;2.95;0.93;;;;;12.50;101257.00;;;;5071542;28;20191;-76
2021/04/10 06:42:36;;;;;;;2.75;0.85;;;;;12.50;101263.00;;;;5069324;28;20672;-75
2021/04/10 06:45:04;;;;;;;4.65;1.13;;;;;12.60;101256.00;;;;5069244;28;20657;-75
2021/04/10 06:47:33;;;;;;;2.53;1.25;;;;;12.60;101269.00;;;;5078035;28;20206;-75
2021/04/10 06:50:04;;;;;;;2.53;1.13;;;;;12.60;101261.00;;;;5074911;28;20708;-75
2021/04/10 06:52:35;;;;;;;1.95;0.95;;;;;12.60;101268.00;;;;5071456;28;20230;-75
2021/04/10 06:55:05;;;;;;;2.10;0.90;;;;;12.70;101260.00;;;;5075920;28;20813;-76
2021/04/10 06:57:39;;;;;;;4.80;1.30;;;;;12.70;101269.00;;;;5084521;28;20206;-76
2021/04/10 07:00:09;;;;;;;1.35;0.85;;;;;12.70;101270.00;;;;5085041;28;20255;-75
2021/04/10 07:02:38;;;;;;;4.57;0.85;;;;;12.70;101268.00;;;;5082735;28;20571;-76
2021/04/10 07:05:07;;;;;;;5.03;1.08;;;;;12.70;101265.00;;;;5082486;28;20348;-76
2021/04/10 07:07:35;;;;;;;3.05;1.17;;;;;12.80;101267.00;;;;5071776;28;20191;-75
2021/04/10 07:10:04;;;;;;;4.18;1.10;;;;;12.80;101264.00;;;;5079141;28;20198;-76
2021/04/10 07:12:31;;;;;;;4.38;1.42;;;;;12.90;101267.00;;;;5071211;28;20188;-75
2021/04/10 07:14:58;;;;;;;3.33;1.33;;;;;12.90;101271.00;;;;5075950;28;20226;-76
2021/04/10 07:17:24;;;;;;;4.65;1.00;;;;;13.00;101272.00;;;;5070420;28;20190;-75
2021/04/10 07:19:51;;;;;;;2.05;1.08;;;;;13.00;101279.00;;;;5070192;28;20195;-76
2021/04/10 07:22:19;;;;;;;1.77;0.88;;;;;13.10;101272.00;;;;5077089;28;20780;-74
2021/04/10 07:24:47;;;;;;;2.70;0.82;;;;;13.20;101281.00;;;;5070615;28;20194;-75
2021/04/10 07:27:15;;;;;;;3.13;1.27;;;;;13.20;101279.00;;;;5077839;28;20209;-74
2021/04/10 07:29:44;;;;;;;1.75;1.00;;;;;13.30;101282.00;;;;5078239;28;20233;-75
2021/04/10 07:32:32;;;;;;;2.03;1.00;;;;;13.30;101288.00;;;;5073068;28;20206;-75
2021/04/10 07:35:00;;;;;;;3.45;0.85;;;;;13.40;101293.00;;;;5076777;28;20564;-75
2021/04/10 07:37:36;;;;;;;7.05;1.73;;;;;13.40;101296.00;;;;5072524;28;20195;-75
2021/04/10 07:40:07;;;;;;;2.63;0.90;;;;;13.50;101284.00;;;;5076394;28;20205;-76
2021/04/10 07:42:38;;;;;;;4.88;1.10;;;;;13.60;101282.00;;;;5073403;28;20195;-75
2021/04/10 07:45:07;;;;;;;3.40;1.20;;;;;13.70;101292.00;;;;5076435;28;20700;-75
2021/04/10 07:47:39;;;;;;;2.17;0.98;;;;;13.70;101292.00;;;;5077242;28;20225;-76
2021/04/10 07:50:21;;;;;;;6.03;1.00;;;;;13.70;101285.00;;;;5074003;28;20723;-76
2021/04/10 07:52:49;;;;;;;2.20;1.00;;;;;13.90;101287.00;;;;5074968;28;20222;-76
2021/04/10 07:55:36;;;;;;;2.67;1.00;;;;;13.90;101281.00;;;;5077831;28;20229;-77
2021/04/10 07:58:23;;;;;;;3.17;0.95;;;;;13.90;101287.00;;;;5080683;28;20194;-76
2021/04/10 08:00:50;;;;;;;2.63;0.98;;;;;14.10;101282.00;;;;5077922;28;20669;-76
2021/04/10 08:03:32;;;;;;;2.65;0.60;;;;;14.00;101283.00;;;;5071597;28;20197;-75
2021/04/10 08:06:16;;;;;;;1.98;0.73;;;;;14.10;101275.00;;;;5070163;28;20203;-76
2021/04/10 08:08:54;;;;;;;4.60;1.05;;;;;14.20;101280.00;;;;5079155;28;20278;-76
2021/04/10 08:11:37;;;;;;;2.92;0.90;;;;;14.30;101290.00;;;;5081067;28;20197;-75
2021/04/10 08:14:07;;;;;;;2.50;0.90;;;;;14.40;101285.00;;;;5075615;28;20289;-74
2021/04/10 08:16:39;;;;;;;2.95;0.95;;;;;14.50;101293.00;;;;5088735;28;20202;-77
2021/04/10 08:19:06;;;;;;;3.35;0.98;;;;;14.60;101285.00;;;;5080982;28;20207;-75
2021/04/10 08:21:54;;;;;;;2.40;0.98;;;;;14.50;101295.00;;;;5071390;28;20199;-75
2021/04/10 08:24:30;;;;;;;5.07;0.82;;;;;14.60;101300.00;;;;5065108;28;20194;-75
2021/04/10 08:26:58;;;;;;;2.10;0.68;;;;;14.70;101304.00;;;;5072205;28;20198;-75
2021/04/10 08:29:26;;;;;;;3.55;0.80;;;;;14.70;101305.00;;;;5071892;28;20633;-75
2021/04/10 08:31:53;;;;;;;2.40;0.77;;;;;14.70;101302.00;;;;5071645;28;20187;-75
2021/04/10 08:34:20;;;;;;;1.88;0.80;;;;;14.80;101303.00;;;;5079694;28;20240;-75
2021/04/10 08:36:52;;;;;;;1.23;0.73;;;;;14.80;101306.00;;;;5091516;28;20496;-75
2021/04/10 08:39:20;;;;;;;1.98;0.75;;;;;14.80;101298.00;;;;5075649;28;20194;-75
2021/04/10 08:41:52;;;;;;;3.72;0.73;;;;;14.90;101298.00;;;;5071501;28;20199;-75
2021/04/10 08:44:25;;;;;;;5.30;1.42;;;;;14.90;101302.00;;;;5071890;28;20207;-75
2021/04/10 08:46:52;;;;;;;3.05;0.75;;;;;15.00;101302.00;;;;5071504;28;20199;-75
2021/04/10 08:49:20;;;;;;;3.08;0.70;;;;;15.00;101298.00;;;;5071575;28;20231;-74
2021/04/10 08:51:51;;;;;;;1.80;1.30;;;;;15.00;101301.00;;;;5082894;28;20249;-74
2021/04/10 08:54:19;;;;;;;3.42;0.80;;;;;15.00;101294.00;;;;5091422;28;20217;-74
2021/04/10 08:56:50;;;;;;;6.28;1.23;;;;;15.00;101295.00;;;;5091857;28;20209;-74
2021/04/10 08:59:19;;;;;;;3.03;1.08;;;;;15.00;101295.00;;;;5076752;28;20199;-74
2021/04/10 09:02:06;;;;;;;2.15;0.80;;;;;15.00;101296.00;;;;5070943;28;20203;-74
2021/04/10 09:04:53;;;;;;;2.63;1.00;;;;;15.10;101292.00;;;;5071823;28;20202;-74
2021/04/10 09:07:19;;;;;;;1.20;0.57;;;;;15.20;101303.00;;;;5071702;28;20198;-74
2021/04/10 09:09:48;;;;;;;2.00;0.93;;;;;15.20;101298.00;;;;5090559;28;20222;-74
2021/04/10 09:12:26;;;;;;;2.42;0.95;;;;;15.20;101301.00;;;;5091886;28;20198;-75
2021/04/10 09:14:53;;;;;;;7.68;1.60;;;;;15.30;101302.00;;;;5090804;28;20225;-75
2021/04/10 09:17:20;;;;;;;2.85;1.15;;;;;15.30;101300.00;;;;5079332;28;20201;-74
2021/04/10 09:19:53;;;;;;;3.70;1.10;;;;;15.40;101299.00;;;;5081311;28;20242;-74
2021/04/10 09:22:19;;;;;;;2.60;1.27;;;;;15.40;101294.00;;;;5090511;28;20695;-74
2021/04/10 09:24:47;;;;;;;1.45;0.68;;;;;15.40;101296.00;;;;5090546;28;20214;-75
2021/04/10 09:27:21;;;;;;;1.90;0.68;;;;;15.50;101304.00;;;;5079580;28;20628;-74
2021/04/10 09:29:57;;;;;;;3.83;0.93;;;;;15.60;101302.00;;;;5070512;28;20202;-74
2021/04/10 09:32:32;;;;;;;2.33;1.27;;;;;15.60;101297.00;;;;5069993;28;20670;-74
2021/04/10 09:35:01;;;;;;;2.03;1.20;;;;;15.80;101293.00;;;;5070921;28;20268;-75
2021/04/10 09:38:01;;;;;;;4.47;0.98;;;;;15.80;101300.00;;;;5070451;28;20191;-74
2021/04/10 09:40:50;;;;;;;1.02;0.80;;;;;15.90;101297.00;;;;5070934;28;20226;-74
2021/04/10 09:43:20;;;;;;;3.15;1.05;;;;;16.00;101301.00;;;;5085772;28;20729;-74
2021/04/10 09:45:48;;;;;;;2.33;1.30;;;;;16.10;101305.00;;;;5090408;28;20190;-75
2021/04/10 09:48:32;;;;;;;3.45;1.27;;;;;16.20;101305.00;;;;5070761;28;20211;-74
2021/04/10 09:51:16;;;;;;;1.65;0.85;;;;;16.20;101304.00;;;;5069813;28;20190;-74
2021/04/10 09:53:47;;;;;;;3.33;1.10;;;;;16.20;101307.00;;;;5071390;28;20587;-75
2021/04/10 09:56:15;;;;;;;2.63;1.13;;;;;16.30;101311.00;;;;5077852;28;20209;-74
2021/04/10 09:58:45;;;;;;;2.28;0.73;;;;;16.30;101301.00;;;;5084494;28;20682;-74
2021/04/10 10:01:17;;;;;;;1.65;1.00;;;;;16.40;101300.00;;;;5089434;28;20948;-75
2021/04/10 10:03:46;;;;;;;2.67;0.90;;;;;16.40;101296.00;;;;5089634;28;20209;-75
2021/04/10 10:06:32;;;;;;;4.65;1.40;;;;;16.30;101299.00;;;;5088646;28;20213;-75
2021/04/10 10:08:59;;;;;;;2.80;1.15;;;;;16.40;101299.00;;;;5087001;28;20198;-75
2021/04/10 10:11:26;;;;;;;2.40;0.70;;;;;16.40;101286.00;;;;5085609;28;20206;-75
2021/04/10 10:13:56;;;;;;;2.35;1.08;;;;;16.40;101296.00;;;;5089089;28;20199;-75
2021/04/10 10:16:29;;;;;;;3.42;0.95;;;;;16.40;101289.00;;;;5089121;28;20198;-75
2021/04/10 10:18:55;;;;;;;3.85;1.15;;;;;16.50;101299.00;;;;5085217;28;20222;-75
2021/04/10 10:21:24;;;;;;;4.38;0.90;;;;;16.50;101293.00;;;;5087377;28;20202;-75
2021/04/10 10:23:53;;;;;;;3.35;1.30;;;;;16.40;101297.00;;;;5078868;28;20210;-75
2021/04/10 10:26:21;;;;;;;2.10;1.23;;;;;16.40;101286.00;;;;5071923;28;20199;-75
2021/04/10 10:28:50;;;;;;;2.22;1.00;;;;;16.40;101298.00;;;;5084906;28;20195;-75
2021/04/10 10:31:20;;;;;;;3.38;1.10;;;;;16.30;101284.00;;;;5076769;28;20244;-76
2021/04/10 10:33:47;;;;;;;2.47;1.23;;;;;16.30;101294.00;;;;5080673;28;20203;-75
2021/04/10 10:36:15;;;;;;;2.40;1.13;;;;;16.30;101280.00;;;;5083170;28;20222;-75
2021/04/10 10:38:44;;;;;;;2.92;1.00;;;;;16.20;101280.00;;;;5086149;28;20197;-75
2021/04/10 10:41:13;;;;;;;1.95;0.98;;;;;16.20;101271.00;;;;5073330;28;20205;-75
2021/04/10 10:43:40;;;;;;;3.28;1.40;;;;;16.20;101270.00;;;;5076468;28;20199;-76
2021/04/10 10:46:08;;;;;;;2.50;0.90;;;;;16.10;101267.00;;;;5074034;28;20610;-76
2021/04/10 10:48:38;;;;;;;2.38;1.10;;;;;16.10;101277.00;;;;5077558;28;20233;-76
2021/04/10 10:51:13;;;;;;;1.95;0.98;;;;;16.00;101267.00;;;;5078317;28;20206;-75
2021/04/10 10:53:41;;;;;;;3.17;1.15;;;;;16.10;101262.00;;;;5077420;28;20198;-75
2021/04/10 10:56:19;;;;;;;1.85;0.93;;;;;16.00;101257.00;;;;5080292;28;20225;-76
2021/04/10 10:58:49;;;;;;;2.78;1.50;;;;;16.10;101254.00;;;;5069033;28;20194;-75
2021/04/10 11:01:22;;;;;;;4.45;1.40;;;;;16.00;101247.00;;;;5074870;28;20559;-75
2021/04/10 11:03:55;;;;;;;1.50;0.93;;;;;16.00;101251.00;;;;5081662;28;20554;-75
2021/04/10 11:06:24;;;;;;;2.65;1.35;;;;;16.00;101243.00;;;;5089445;28;20568;-74
2021/04/10 11:08:51;;;;;;;3.38;1.27;;;;;16.10;101249.00;;;;5073180;28;20589;-74
2021/04/10 11:11:25;;;;;;;2.67;1.02;;;;;16.00;101239.00;;;;5087117;28;20252;-75
2021/04/10 11:13:52;;;;;;;4.47;1.60;;;;;16.00;101235.00;;;;5088173;28;20190;-74
2021/04/10 11:16:18;;;;;;;5.88;1.45;;;;;16.00;101238.00;;;;5082384;28;20228;-75
2021/04/10 11:18:45;;;;;;;4.13;1.40;;;;;16.00;101231.00;;;;5088751;28;20195;-75
2021/04/10 11:21:27;;;;;;;5.88;1.73;;;;;16.00;101229.00;;;;5088893;28;20206;-75
2021/04/10 11:24:15;;;;;;;2.03;1.05;;;;;15.90;101229.00;;;;5088141;28;20687;-75
2021/04/10 11:26:50;;;;;;;3.03;1.55;;;;;16.00;101231.00;;;;5082231;28;20191;-76
2021/04/10 11:29:30;;;;;;;3.83;1.40;;;;;15.90;101219.00;;;;5088386;28;20251;-76
2021/04/10 11:32:12;;;;;;;2.72;1.13;;;;;15.80;101221.00;;;;5088791;28;20289;-76
2021/04/10 11:34:41;;;;;;;2.33;1.13;;;;;15.90;101210.00;;;;5088938;28;20221;-76
2021/04/10 11:37:10;;;;;;;2.30;0.98;;;;;15.90;101207.00;;;;5088244;28;20240;-75
2021/04/10 11:39:55;;;;;;;3.75;1.58;;;;;15.80;101204.00;;;;5088791;28;20193;-75
2021/04/10 11:42:30;;;;;;;2.92;1.20;;;;;15.80;101207.00;;;;5082612;28;20202;-75
2021/04/10 11:44:58;;;;;;;3.28;1.20;;;;;15.90;101204.00;;;;5083661;28;20199;-75
2021/04/10 11:47:27;;;;;;;4.22;1.42;;;;;15.90;101206.00;;;;5086530;28;20205;-76
2021/04/10 11:50:04;;;;;;;4.63;0.98;;;;;16.00;101194.00;;;;5079728;28;20862;-75
2021/04/10 11:52:32;;;;;;;2.00;1.33;;;;;16.10;101199.00;;;;5091705;28;20218;-76
2021/04/10 11:55:05;;;;;;;2.17;1.48;;;;;16.10;101195.00;;;;5071555;28;20218;-75
2021/04/10 11:57:34;;;;;;;1.95;1.13;;;;;16.20;101188.00;;;;5075957;28;20191;-75
2021/04/10 12:00:17;;;;;;;2.08;1.30;;;;;16.20;101197.00;;;;5077518;28;20587;-76
2021/04/10 12:02:46;;;;;;;3.13;1.35;;;;;16.30;101199.00;;;;5083903;28;20206;-75
2021/04/10 12:05:38;;;;;;;2.95;1.40;;;;;16.30;101189.00;;;;5072414;28;20248;-76
2021/04/10 12:08:14;;;;;;;1.45;1.17;;;;;16.30;101187.00;;;;5071307;28;20213;-75
2021/04/10 12:10:44;;;;;;;3.50;1.42;;;;;16.40;101173.00;;;;5084100;28;20194;-76
2021/04/10 12:13:11;;;;;;;2.63;1.50;;;;;16.40;101182.00;;;;5092315;28;20209;-75
2021/04/10 12:15:40;;;;;;;3.95;1.17;;;;;16.40;101189.00;;;;5083882;28;20805;-75
2021/04/10 12:18:08;;;;;;;5.60;1.50;;;;;16.40;101175.00;;;;5089489;28;20240;-75
2021/04/10 12:20:37;;;;;;;2.17;1.10;;;;;16.30;101182.00;;;;5089476;28;20690;-75
2021/04/10 12:23:04;;;;;;;1.73;1.20;;;;;16.20;101183.00;;;;5091120;28;20198;-75